Time;durP1;ratioP1;P1;durP2;ratioP2;P2;SDS_P1;SDS_P2;PMS_P1;PMS_P2;Temp;Humidity;BMP_temperature;BMP_pressure;BME280_temperature;BME280_humidity;BME280_pressure;Samples;Min_cycle;Max_cycle;Signal;HPM_P1;HPM_P2
2023/08/03 00:00:34;;;;;;;4.10;1.73;;;18.10;81.30;;;17.22;100.00;94815.50;4966563;28;20061;-73
2023/08/03 00:03:00;;;;;;;5.30;1.60;;;18.00;81.40;;;17.20;100.00;94827.44;4953841;28;20813;-72
2023/08/03 00:05:26;;;;;;;3.35;1.63;;;18.10;81.40;;;17.20;100.00;94827.44;4949702;28;20419;-72
2023/08/03 00:07:52;;;;;;;2.67;1.42;;;18.10;82.10;;;17.20;100.00;94830.09;4955522;28;20112;-72
2023/08/03 00:10:18;;;;;;;8.13;1.73;;;18.10;81.70;;;17.18;100.00;94837.53;4954073;28;20043;-72
2023/08/03 00:12:44;;;;;;;3.05;1.50;;;18.00;81.50;;;17.19;100.00;94836.47;4961048;28;20034;-73
2023/08/03 00:15:10;;;;;;;4.82;1.40;;;18.10;81.80;;;17.14;100.00;94839.91;4936727;28;20035;-72
2023/08/03 00:17:37;;;;;;;13.20;2.03;;;18.00;81.60;;;17.07;100.00;94856.09;4955020;28;20034;-72
2023/08/03 00:20:04;;;;;;;5.20;1.70;;;17.90;81.70;;;17.05;100.00;94852.91;4951813;28;20498;-72
2023/08/03 00:22:31;;;;;;;4.03;1.40;;;17.90;81.70;;;16.98;100.00;94840.94;4968787;28;20104;-72
2023/08/03 00:24:58;;;;;;;2.92;1.63;;;17.70;81.60;;;16.94;100.00;94837.97;4956866;28;20386;-72
2023/08/03 00:27:24;;;;;;;4.07;1.60;;;17.70;81.50;;;16.90;100.00;94844.84;4970766;28;20061;-72
2023/08/03 00:29:50;;;;;;;5.18;1.90;;;17.70;81.90;;;16.89;100.00;94847.78;4937813;28;20502;-72
2023/08/03 00:32:16;;;;;;;6.43;1.67;;;17.70;82.10;;;16.88;100.00;94848.84;4985975;28;20125;-72
2023/08/03 00:34:41;;;;;;;3.85;1.75;;;17.70;82.50;;;16.87;100.00;94845.38;4953591;28;20158;-72
2023/08/03 00:37:07;;;;;;;4.65;1.73;;;17.70;82.00;;;16.81;100.00;94846.41;4953549;28;20100;-72
2023/08/03 00:39:33;;;;;;;5.28;2.00;;;17.60;82.50;;;16.80;100.00;94839.50;4951649;28;20069;-73
2023/08/03 00:41:59;;;;;;;3.17;1.60;;;17.70;82.50;;;16.76;100.00;94846.41;4961695;28;20389;-71
2023/08/03 00:44:24;;;;;;;4.18;1.58;;;17.60;82.40;;;16.74;100.00;94854.59;4986665;28;20191;-74
2023/08/03 00:46:50;;;;;;;3.05;1.73;;;17.60;82.50;;;16.74;100.00;94849.28;4951041;28;20042;-72
2023/08/03 00:49:16;;;;;;;7.43;2.30;;;17.60;82.80;;;16.72;100.00;94859.38;4950485;28;20564;-73
2023/08/03 00:51:42;;;;;;;5.25;2.10;;;17.60;82.90;;;16.70;100.00;94869.44;4950589;28;20121;-72
2023/08/03 00:54:08;;;;;;;5.72;1.70;;;17.60;82.90;;;16.66;100.00;94864.88;4952026;28;20162;-73
2023/08/03 00:56:35;;;;;;;3.80;1.60;;;17.60;82.80;;;16.64;100.00;94859.03;4969051;28;20127;-73
2023/08/03 00:59:04;;;;;;;6.47;1.73;;;17.50;83.10;;;16.63;100.00;94855.59;4953689;28;20018;-72
2023/08/03 01:01:30;;;;;;;6.00;1.60;;;17.50;83.10;;;16.61;100.00;94859.56;4951959;28;20086;-72
2023/08/03 01:03:56;;;;;;;6.70;1.83;;;17.50;83.20;;;16.57;100.00;94859.28;4957662;28;20514;-73
2023/08/03 01:06:22;;;;;;;5.28;1.70;;;17.40;83.20;;;16.52;100.00;94860.03;4967303;28;20587;-73
2023/08/03 01:08:48;;;;;;;4.97;1.70;;;17.40;83.60;;;16.51;100.00;94850.44;4962233;28;20126;-72
2023/08/03 01:11:14;;;;;;;4.00;1.50;;;17.40;83.90;;;16.48;100.00;94848.31;4953320;28;20133;-72
2023/08/03 01:13:39;;;;;;;5.72;1.90;;;17.30;83.90;;;16.44;100.00;94849.88;4951172;28;20074;-73
2023/08/03 01:16:09;;;;;;;5.47;1.95;;;17.30;84.20;;;16.43;100.00;94840.31;4966478;28;20049;-73
2023/08/03 01:18:37;;;;;;;8.67;1.90;;;17.30;84.20;;;16.42;100.00;94837.94;4949439;28;20031;-73
2023/08/03 01:21:04;;;;;;;3.58;1.80;;;17.30;84.10;;;16.41;100.00;94826.50;4950698;28;20038;-71
2023/08/03 01:23:30;;;;;;;5.97;1.80;;;17.30;84.10;;;16.42;100.00;94835.28;4952553;28;20042;-72
2023/08/03 01:25:55;;;;;;;5.57;2.20;;;17.40;84.00;;;16.42;100.00;94836.06;4955359;28;20134;-73
2023/08/03 01:28:21;;;;;;;4.28;1.70;;;17.40;84.10;;;16.44;100.00;94835.81;4960053;28;20125;-72
2023/08/03 01:30:47;;;;;;;4.40;1.85;;;17.40;83.90;;;16.43;100.00;94816.44;4951557;28;20204;-72
2023/08/03 01:33:13;;;;;;;5.65;1.83;;;17.40;84.00;;;16.40;100.00;94835.53;4950696;28;20038;-72
2023/08/03 01:35:39;;;;;;;5.93;1.88;;;17.40;84.10;;;16.40;100.00;94830.22;4952715;28;20363;-72
2023/08/03 01:38:04;;;;;;;4.28;1.80;;;17.30;84.00;;;16.40;100.00;94840.03;4949549;28;20080;-72
2023/08/03 01:40:30;;;;;;;5.20;1.90;;;17.40;84.00;;;16.37;100.00;94840.56;4951667;28;20126;-73
2023/08/03 01:42:56;;;;;;;5.65;1.90;;;17.30;84.00;;;16.36;100.00;94833.66;4968599;28;20058;-73
2023/08/03 01:45:22;;;;;;;4.70;1.70;;;17.30;84.20;;;16.35;100.00;94848.78;4950327;28;20122;-73
2023/08/03 01:47:48;;;;;;;7.30;2.08;;;17.30;84.10;;;16.36;100.00;94834.44;4963383;28;20070;-73
2023/08/03 01:50:13;;;;;;;6.28;1.95;;;17.30;83.80;;;16.35;100.00;94827.56;4951066;28;20085;-74
2023/08/03 01:52:39;;;;;;;6.07;1.63;;;17.40;84.00;;;16.37;100.00;94820.13;4969961;28;20022;-72
2023/08/03 01:55:06;;;;;;;5.85;2.08;;;17.40;83.90;;;16.40;100.00;94824.91;4953540;28;20057;-72
2023/08/03 01:57:31;;;;;;;3.75;1.67;;;17.40;83.90;;;16.40;100.00;94816.97;4964672;28;20093;-73
2023/08/03 01:59:57;;;;;;;7.35;2.30;;;17.40;83.90;;;16.41;100.00;94826.50;4941599;28;20062;-73
2023/08/03 02:02:23;;;;;;;5.50;2.10;;;17.50;83.80;;;16.40;100.00;94827.56;4967395;28;20042;-72
2023/08/03 02:04:49;;;;;;;4.50;2.20;;;17.50;83.90;;;16.39;100.00;94820.66;4971277;28;20038;-73
2023/08/03 02:07:53;;;;;;;6.35;1.95;;;17.40;84.00;;;16.40;100.00;94824.91;4950064;28;20281;-72
2023/08/03 02:10:19;;;;;;;6.00;1.92;;;17.40;84.10;;;16.39;100.00;94825.97;4970143;28;21220;-73
2023/08/03 02:12:45;;;;;;;7.53;2.10;;;17.40;84.00;;;16.41;100.00;94828.38;4967533;28;20038;-73
2023/08/03 02:15:10;;;;;;;6.65;2.00;;;17.40;84.10;;;16.43;100.00;94828.91;4976777;28;20039;-73
2023/08/03 02:17:36;;;;;;;6.25;1.73;;;17.50;84.10;;;16.41;100.00;94831.81;4952647;28;20122;-73
2023/08/03 02:20:02;;;;;;;6.30;2.00;;;17.40;83.80;;;16.40;100.00;94830.22;4967568;28;20386;-73
2023/08/03 02:22:28;;;;;;;6.65;2.05;;;17.50;84.00;;;16.40;100.00;94835.53;4966387;28;20182;-73
2023/08/03 02:24:54;;;;;;;4.82;1.75;;;17.40;84.00;;;16.37;100.00;94841.34;4962811;28;20034;-73
2023/08/03 02:27:19;;;;;;;6.75;1.98;;;17.40;84.20;;;16.35;100.00;94842.66;4955250;28;20161;-73
2023/08/03 02:29:45;;;;;;;3.65;1.67;;;17.30;84.10;;;16.31;100.00;94833.63;4956918;28;20177;-72
2023/08/03 02:32:11;;;;;;;7.07;2.38;;;17.20;84.20;;;16.28;100.00;94842.88;4971910;28;20106;-73
2023/08/03 02:34:37;;;;;;;5.53;2.00;;;17.20;84.00;;;16.21;100.00;94840.44;4988520;28;20092;-73
2023/08/03 02:37:02;;;;;;;7.03;2.42;;;17.10;83.90;;;16.19;100.00;94845.22;4939816;28;20030;-72
2023/08/03 02:39:28;;;;;;;5.57;1.80;;;17.10;83.50;;;16.16;100.00;94852.88;4953510;28;20045;-73
2023/08/03 02:41:54;;;;;;;6.88;1.88;;;17.10;83.50;;;16.14;100.00;94847.03;4967890;28;20117;-73
2023/08/03 02:44:21;;;;;;;7.53;2.10;;;17.10;83.30;;;16.14;100.00;94841.72;4939710;28;20142;-73
2023/08/03 02:46:48;;;;;;;6.80;2.40;;;17.10;83.10;;;16.12;100.00;94841.19;4956349;28;20034;-73
2023/08/03 02:49:13;;;;;;;7.55;1.92;;;17.10;83.00;;;16.10;100.00;94841.44;4958774;28;20117;-73
2023/08/03 02:51:41;;;;;;;6.80;2.30;;;17.10;83.40;;;16.09;100.00;94841.69;4970817;28;20126;-73
2023/08/03 02:54:07;;;;;;;7.78;2.42;;;17.10;83.10;;;16.07;100.00;94847.25;4982394;28;20062;-73
2023/08/03 02:56:33;;;;;;;6.50;1.80;;;17.00;83.00;;;16.05;100.00;94844.03;4953231;28;20114;-73
2023/08/03 02:58:58;;;;;;;6.28;2.03;;;17.00;82.90;;;16.01;100.00;94837.63;4959661;28;20058;-72
2023/08/03 03:01:24;;;;;;;8.18;2.38;;;17.00;83.30;;;16.01;100.00;94831.53;4973059;28;20397;-73
2023/08/03 03:03:50;;;;;;;7.60;2.25;;;17.00;83.00;;;15.99;100.00;94838.94;4988007;28;20424;-71
2023/08/03 03:06:16;;;;;;;11.27;2.47;;;17.00;82.90;;;15.97;100.00;94835.75;4968107;28;20481;-72
2023/08/03 03:08:42;;;;;;;7.93;2.30;;;16.90;83.00;;;15.92;100.00;94845.28;4968486;28;20490;-72
2023/08/03 03:11:07;;;;;;;9.95;2.38;;;16.90;83.00;;;15.90;100.00;94836.78;4954371;28;20034;-73
2023/08/03 03:13:33;;;;;;;8.95;2.22;;;16.80;82.80;;;15.88;100.00;94862.75;4987893;28;20394;-72
2023/08/03 03:15:59;;;;;;;7.63;2.05;;;16.80;82.60;;;15.87;100.00;94858.50;4966517;28;20588;-67
2023/08/03 03:18:24;;;;;;;5.05;1.83;;;16.80;82.90;;;15.85;100.00;94854.50;4953803;28;20418;-72
2023/08/03 03:20:50;;;;;;;6.63;1.77;;;16.80;83.00;;;15.83;100.00;94856.56;4985885;28;20687;-71
2023/08/03 03:23:16;;;;;;;7.32;2.17;;;16.70;82.80;;;15.79;100.00;94852.81;4965416;28;20666;-72
2023/08/03 03:25:42;;;;;;;5.00;1.90;;;16.70;82.70;;;15.77;100.00;94858.38;4976533;28;20054;-73
2023/08/03 03:28:07;;;;;;;6.38;1.80;;;16.70;82.60;;;15.76;100.00;94861.28;4952897;28;20150;-72
2023/08/03 03:30:33;;;;;;;9.07;2.65;;;16.70;82.80;;;15.73;100.00;94854.63;4978760;28;20113;-74
2023/08/03 03:32:59;;;;;;;7.82;1.73;;;16.70;82.70;;;15.71;100.00;94856.75;4953473;28;20038;-73
2023/08/03 03:35:25;;;;;;;10.48;2.17;;;16.60;82.60;;;15.71;100.00;94853.28;4936196;28;20382;-73
2023/08/03 03:37:51;;;;;;;8.95;2.42;;;16.60;82.50;;;15.69;100.00;94848.25;4954679;28;20054;-73
2023/08/03 03:40:17;;;;;;;8.50;2.13;;;16.70;82.40;;;15.69;100.00;94834.19;4942869;28;20100;-73
2023/08/03 03:42:42;;;;;;;8.18;2.03;;;16.60;82.10;;;15.66;100.00;94837.34;4953996;28;20039;-74
2023/08/03 03:45:08;;;;;;;10.80;2.75;;;16.60;82.40;;;15.66;100.00;94840.00;4957312;28;20114;-73
2023/08/03 03:47:34;;;;;;;7.05;2.05;;;16.60;82.40;;;15.64;100.00;94836.81;4936519;28;20037;-73
2023/08/03 03:50:00;;;;;;;15.57;2.78;;;16.60;82.30;;;15.63;100.00;94845.81;4949993;28;20117;-71
2023/08/03 03:52:26;;;;;;;8.85;2.45;;;16.60;81.80;;;15.61;100.00;94859.28;4937152;28;20035;-71
2023/08/03 03:54:51;;;;;;;8.75;2.13;;;16.60;82.00;;;15.58;100.00;94859.75;4953385;28;20027;-70
2023/08/03 03:57:17;;;;;;;7.03;2.25;;;16.60;81.80;;;15.57;100.00;94868.75;4954142;28;20023;-72
2023/08/03 03:59:43;;;;;;;8.93;2.10;;;16.50;81.30;;;15.55;100.00;94868.22;4964857;28;20109;-70
2023/08/03 04:02:08;;;;;;;8.98;2.47;;;16.50;81.30;;;15.54;100.00;94866.59;4948625;28;20117;-70
2023/08/03 04:04:34;;;;;;;9.20;2.75;;;16.50;81.40;;;15.53;100.00;94872.97;4962920;28;20126;-70
2023/08/03 04:07:00;;;;;;;9.32;2.25;;;16.50;81.10;;;15.51;100.00;94883.00;4966947;28;20133;-72
2023/08/03 04:09:26;;;;;;;6.82;1.98;;;16.60;80.90;;;15.51;100.00;94880.38;4952226;28;20461;-72
2023/08/03 04:11:51;;;;;;;11.68;2.70;;;16.50;80.90;;;15.49;100.00;94877.16;4968534;28;20378;-72
2023/08/03 04:14:17;;;;;;;7.38;2.20;;;16.50;80.90;;;15.50;100.00;94871.59;4963933;28;20118;-72
2023/08/03 04:16:43;;;;;;;10.50;2.45;;;16.60;81.10;;;15.51;100.00;94881.16;4964893;28;20466;-74
2023/08/03 04:19:09;;;;;;;9.48;2.33;;;16.60;80.60;;;15.51;100.00;94880.38;4952676;28;20122;-74
2023/08/03 04:21:34;;;;;;;13.98;2.88;;;16.60;80.50;;;15.52;100.00;94889.91;4947797;28;20117;-73
2023/08/03 04:24:00;;;;;;;12.30;3.10;;;16.60;80.50;;;15.53;100.00;94886.22;4968061;28;20153;-72
2023/08/03 04:26:26;;;;;;;8.90;2.72;;;16.60;80.30;;;15.55;100.00;94882.25;4944957;28;20109;-73
2023/08/03 04:28:52;;;;;;;10.27;3.20;;;16.70;80.30;;;15.58;100.00;94880.97;4946436;28;20118;-73
2023/08/03 04:31:17;;;;;;;12.15;3.20;;;16.70;80.30;;;15.58;100.00;94875.66;4963383;28;20117;-73
2023/08/03 04:33:46;;;;;;;7.88;2.60;;;16.80;80.40;;;15.60;100.00;94884.97;4947803;28;20628;-73
2023/08/03 04:36:12;;;;;;;10.00;2.28;;;16.70;80.60;;;15.61;100.00;94880.47;4948617;28;20059;-73
2023/08/03 04:38:37;;;;;;;7.50;2.10;;;16.70;80.40;;;15.63;100.00;94883.72;4968390;28;20061;-72
2023/08/03 04:41:03;;;;;;;6.32;2.10;;;16.80;80.70;;;15.65;100.00;94886.91;4950256;28;20129;-73
2023/08/03 04:43:29;;;;;;;9.23;2.58;;;16.80;80.80;;;15.66;100.00;94893.00;4948161;28;20697;-73
2023/08/03 04:45:55;;;;;;;9.25;2.30;;;16.90;80.50;;;15.66;100.00;94904.41;4963280;28;20118;-72
2023/08/03 04:48:20;;;;;;;8.82;2.50;;;16.90;80.40;;;15.67;100.00;94897.25;4961341;28;20126;-72
2023/08/03 04:50:46;;;;;;;9.02;2.28;;;16.80;79.90;;;15.69;100.00;94890.66;4950665;28;20402;-71
2023/08/03 04:53:12;;;;;;;6.45;1.75;;;16.80;79.90;;;15.70;100.00;94905.50;4949424;28;20077;-72
2023/08/03 04:55:38;;;;;;;5.90;2.53;;;16.90;79.80;;;15.69;100.00;94893.31;4949939;28;20184;-72
2023/08/03 04:58:04;;;;;;;8.52;2.33;;;16.80;79.40;;;15.72;100.00;94897.31;4944548;28;20082;-71
2023/08/03 05:00:30;;;;;;;9.88;2.72;;;16.90;79.50;;;15.73;100.00;94904.22;4950156;28;20305;-72
2023/08/03 05:02:55;;;;;;;7.72;2.65;;;16.90;79.60;;;15.74;100.00;94909.25;4961276;28;20488;-71
2023/08/03 05:05:21;;;;;;;9.23;2.80;;;16.90;79.50;;;15.75;100.00;94918.81;4967072;28;20367;-69
2023/08/03 05:07:47;;;;;;;9.18;2.97;;;16.90;79.60;;;15.77;100.00;94916.72;4977970;28;20232;-69
2023/08/03 05:10:13;;;;;;;13.20;4.82;;;17.00;79.70;;;15.78;100.00;94926.25;4948847;28;20079;-72
2023/08/03 05:12:41;;;;;;;7.75;2.70;;;16.90;79.00;;;15.79;100.00;94919.09;4962235;28;20452;-65
2023/08/03 05:15:10;;;;;;;9.57;2.50;;;17.00;79.30;;;15.84;100.00;94919.97;4949489;28;20689;-70
2023/08/03 05:17:36;;;;;;;8.43;2.47;;;17.10;78.90;;;15.88;100.00;94915.78;4965148;28;20038;-68
2023/08/03 05:20:01;;;;;;;8.95;2.05;;;17.10;78.50;;;15.91;100.00;94923.22;4932071;28;20034;-65
2023/08/03 05:22:27;;;;;;;4.97;1.92;;;17.10;78.60;;;15.96;100.00;94919.00;4948175;28;20121;-68
2023/08/03 05:24:53;;;;;;;8.70;2.47;;;17.20;78.20;;;16.02;100.00;94921.44;4942711;28;20037;-70
2023/08/03 05:27:19;;;;;;;7.95;2.15;;;17.30;78.20;;;16.05;100.00;94923.59;4970353;28;20454;-69
2023/08/03 05:29:44;;;;;;;5.93;2.22;;;17.30;77.70;;;16.10;100.00;94922.88;4954012;28;20035;-67
2023/08/03 05:32:11;;;;;;;6.65;1.70;;;17.40;77.70;;;16.16;100.00;94927.16;4964800;28;20038;-67
2023/08/03 05:34:36;;;;;;;7.20;2.20;;;17.50;77.20;;;16.19;100.00;94924.00;4960604;28;20034;-67
2023/08/03 05:37:02;;;;;;;12.38;2.20;;;17.50;76.70;;;16.26;100.00;94929.88;4950368;28;20061;-68
2023/08/03 05:39:28;;;;;;;8.85;2.00;;;17.60;77.20;;;16.33;100.00;94925.19;4951923;28;20026;-67
2023/08/03 05:41:54;;;;;;;8.02;1.92;;;17.70;76.60;;;16.40;100.00;94920.47;4966433;28;20133;-67
2023/08/03 05:44:20;;;;;;;11.20;2.22;;;17.80;76.70;;;16.48;100.00;94916.53;4964867;28;20035;-68
2023/08/03 05:46:45;;;;;;;5.47;1.80;;;17.90;75.20;;;16.57;100.00;94925.63;4967497;28;20038;-67
2023/08/03 05:49:12;;;;;;;9.15;2.10;;;18.10;74.90;;;16.65;100.00;94927.00;4949218;28;20049;-68
2023/08/03 05:51:39;;;;;;;5.18;1.75;;;18.10;72.90;;;16.73;100.00;94935.31;4967993;28;20042;-68
2023/08/03 05:54:05;;;;;;;8.50;1.90;;;18.10;71.70;;;16.81;100.00;94942.03;4951740;28;20029;-67
2023/08/03 05:56:32;;;;;;;6.78;1.55;;;18.30;70.40;;;16.92;100.00;94938.34;4950853;28;20074;-70
2023/08/03 05:58:58;;;;;;;6.45;1.90;;;18.50;70.10;;;17.02;100.00;94946.41;4967746;28;20038;-68
2023/08/03 06:01:24;;;;;;;9.00;1.80;;;18.60;69.60;;;17.14;100.00;94951.50;4952754;28;20114;-66
2023/08/03 06:03:53;;;;;;;8.38;1.65;;;18.70;68.40;;;17.26;99.48;94944.13;4970543;28;20121;-69
2023/08/03 06:06:20;;;;;;;5.90;1.27;;;18.90;68.70;;;17.38;99.22;94941.25;4947800;28;20055;-68
2023/08/03 06:08:53;;;;;;;6.88;1.55;;;19.10;67.10;;;17.53;96.04;94943.97;4949896;28;20038;-68
2023/08/03 06:11:20;;;;;;;5.80;1.60;;;19.20;66.70;;;17.66;96.88;94954.16;4941753;28;20034;-69
2023/08/03 06:13:46;;;;;;;7.10;1.52;;;19.50;66.00;;;17.80;93.79;94954.47;4945890;28;20092;-70
2023/08/03 06:16:13;;;;;;;6.10;1.20;;;19.60;63.70;;;17.94;91.63;94960.09;4954806;28;20034;-68
2023/08/03 06:18:48;;;;;;;8.65;1.27;;;19.70;63.20;;;18.11;87.29;94959.88;4952893;28;20113;-70
2023/08/03 06:21:17;;;;;;;4.80;1.23;;;19.90;62.60;;;18.19;89.48;94936.19;4968110;28;20049;-71
2023/08/03 06:23:51;;;;;;;5.97;1.23;;;20.00;61.70;;;18.35;84.49;94948.47;4950626;28;20168;-68
2023/08/03 06:26:18;;;;;;;8.48;1.10;;;20.10;60.00;;;18.46;84.98;94948.44;4964358;28;20045;-69
2023/08/03 06:28:44;;;;;;;3.53;1.20;;;20.20;59.80;;;18.56;84.28;94927.16;4934008;28;20034;-70
2023/08/03 06:31:17;;;;;;;4.45;1.25;;;20.40;59.60;;;18.65;80.36;94928.25;4953030;28;20030;-73
2023/08/03 06:33:44;;;;;;;3.75;1.00;;;20.50;59.00;;;18.79;82.64;94950.63;4981670;28;20042;-73
2023/08/03 06:36:19;;;;;;;3.38;1.17;;;20.80;59.10;;;18.93;78.18;94938.31;4952697;28;20362;-72
2023/08/03 06:38:45;;;;;;;7.20;1.30;;;20.90;58.00;;;19.05;81.63;94942.56;4952271;28;20031;-70
2023/08/03 06:41:11;;;;;;;3.83;0.80;;;21.10;57.20;;;19.17;79.87;94945.72;4956949;28;20050;-71
2023/08/03 06:43:37;;;;;;;3.28;1.00;;;21.30;57.10;;;19.30;79.73;94945.16;4966789;28;20068;-70
2023/08/03 06:46:04;;;;;;;5.20;0.90;;;21.60;56.30;;;19.45;78.61;94942.44;4957709;28;20055;-68
2023/08/03 06:48:30;;;;;;;5.43;1.20;;;21.70;55.30;;;19.55;76.55;94947.78;4934771;28;20034;-71
2023/08/03 06:50:55;;;;;;;2.40;0.70;;;21.80;53.00;;;19.68;75.76;94945.56;4947680;28;20104;-71
2023/08/03 06:53:21;;;;;;;5.50;1.00;;;22.00;53.70;;;19.82;74.57;94947.38;4951760;28;20039;-70
2023/08/03 06:55:48;;;;;;;5.28;1.25;;;22.20;53.20;;;19.96;73.19;94946.78;4956400;28;20038;-70
2023/08/03 06:58:20;;;;;;;5.53;0.90;;;22.40;51.60;;;20.05;71.44;94918.44;4986706;28;20502;-68
2023/08/03 07:00:45;;;;;;;2.65;0.68;;;22.50;51.70;;;20.13;72.41;94937.31;4955403;28;20053;-69
2023/08/03 07:03:11;;;;;;;3.65;0.80;;;22.50;51.60;;;20.23;69.96;94928.44;4965013;28;20043;-69
2023/08/03 07:05:38;;;;;;;4.40;0.90;;;22.60;50.20;;;20.35;70.38;94949.44;4967429;28;20026;-69
2023/08/03 07:08:04;;;;;;;6.97;1.48;;;22.80;51.30;;;20.48;70.46;94938.19;4950791;28;20499;-66
2023/08/03 07:10:30;;;;;;;8.27;1.20;;;23.00;50.00;;;20.62;69.07;94944.50;4967771;28;20038;-65
2023/08/03 07:12:56;;;;;;;5.85;1.10;;;23.20;49.10;;;20.71;68.01;94937.44;4982364;28;20034;-65
2023/08/03 07:15:22;;;;;;;5.38;1.13;;;23.20;48.70;;;20.84;67.40;94945.91;4936110;28;20038;-67
2023/08/03 07:17:47;;;;;;;6.80;1.20;;;23.30;48.50;;;20.94;66.46;94941.25;4938786;28;20697;-67
2023/08/03 07:20:13;;;;;;;1.83;0.73;;;23.50;47.80;;;21.07;66.23;94934.44;4961139;28;20050;-69
2023/08/03 07:22:39;;;;;;;3.55;1.02;;;23.60;46.90;;;21.20;63.99;94927.63;4957235;28;20099;-68
2023/08/03 07:25:05;;;;;;;4.05;0.98;;;23.60;45.70;;;21.30;64.29;94946.28;4956946;28;20034;-68
2023/08/03 07:27:31;;;;;;;5.93;1.38;;;23.80;46.50;;;21.48;64.15;94948.19;4952258;28;20053;-68
2023/08/03 07:29:57;;;;;;;3.17;1.13;;;24.20;46.70;;;21.70;63.89;94936.94;4952447;28;20267;-70
2023/08/03 07:32:24;;;;;;;3.60;1.13;;;24.40;45.60;;;21.88;62.49;94928.16;4951399;28;20045;-70
2023/08/03 07:34:50;;;;;;;10.48;1.38;;;24.60;45.00;;;22.06;61.66;94942.69;4955156;28;20033;-71
2023/08/03 07:37:15;;;;;;;2.90;0.82;;;24.50;45.60;;;22.15;59.84;94921.38;4969526;28;20468;-70
2023/08/03 07:39:41;;;;;;;2.70;0.73;;;24.50;44.00;;;22.17;59.88;94919.22;4957034;28;20431;-71
2023/08/03 07:42:09;;;;;;;4.60;0.82;;;24.40;44.30;;;22.29;59.38;94923.06;4952332;28;20462;-70
2023/08/03 07:44:35;;;;;;;2.60;0.80;;;24.70;43.50;;;22.43;59.15;94941.09;4937129;28;20069;-67
2023/08/03 07:47:00;;;;;;;4.35;0.60;;;25.10;44.10;;;22.62;59.91;94931.09;4968140;28;20507;-70
2023/08/03 07:49:26;;;;;;;3.55;0.80;;;25.70;43.90;;;22.83;59.81;94936.94;4956135;28;20085;-68
2023/08/03 07:51:52;;;;;;;4.18;0.82;;;26.00;43.30;;;23.01;58.00;94930.75;4966631;28;20038;-67
2023/08/03 07:54:18;;;;;;;3.75;0.90;;;26.00;42.10;;;23.17;58.22;94931.28;4967150;28;20126;-71
2023/08/03 07:56:43;;;;;;;2.83;0.70;;;26.40;42.40;;;23.27;57.24;94930.28;4951863;28;20153;-66
2023/08/03 07:59:10;;;;;;;3.70;0.77;;;26.30;41.40;;;23.35;56.57;94929.59;4968997;28;20073;-68
2023/08/03 08:01:36;;;;;;;4.07;0.77;;;26.50;40.40;;;23.42;56.00;94924.63;4956735;28;20081;-71
2023/08/03 08:04:02;;;;;;;3.15;0.88;;;26.50;40.50;;;23.47;55.13;94935.25;4956024;28;20038;-70
2023/08/03 08:06:28;;;;;;;4.05;1.25;;;26.20;40.10;;;23.53;54.51;94918.75;4945231;28;20027;-70
2023/08/03 08:08:54;;;;;;;5.53;1.20;;;26.10;40.40;;;23.60;53.53;94923.75;4969499;28;20058;-68
2023/08/03 08:11:20;;;;;;;11.27;2.97;;;26.10;40.40;;;23.77;53.61;94929.31;4951200;28;20345;-71
2023/08/03 08:13:45;;;;;;;9.00;2.30;;;26.40;40.60;;;23.99;52.62;94917.00;4967051;28;20062;-70
2023/08/03 08:16:13;;;;;;;5.35;1.73;;;26.60;39.70;;;24.23;52.81;94935.59;4949124;28;20517;-71
2023/08/03 08:18:38;;;;;;;5.25;1.13;;;27.10;39.90;;;24.48;52.33;94940.41;4962842;28;20041;-71
2023/08/03 08:21:10;;;;;;;12.50;3.55;;;27.30;39.40;;;24.65;52.99;94948.56;4960821;28;20034;-68
2023/08/03 08:23:37;;;;;;;5.75;1.25;;;27.60;40.30;;;24.90;52.35;94955.25;4952437;28;20037;-68
2023/08/03 08:26:15;;;;;;;5.30;0.90;;;27.80;38.50;;;25.06;47.30;94906.44;4967802;28;20035;-67
2023/08/03 08:28:42;;;;;;;4.07;0.90;;;27.60;38.30;;;25.11;50.41;94938.59;4967188;28;20026;-67
2023/08/03 08:31:08;;;;;;;4.45;0.90;;;27.40;38.20;;;25.28;50.21;94944.06;4950111;28;20030;-67
2023/08/03 08:33:34;;;;;;;1.90;0.70;;;28.20;37.90;;;25.51;50.08;94952.88;4952032;28;20050;-67
2023/08/03 08:36:00;;;;;;;2.88;0.95;;;28.50;37.20;;;25.74;49.68;94950.94;4937011;28;20066;-71
2023/08/03 08:38:25;;;;;;;6.00;0.80;;;28.90;37.40;;;25.85;48.30;94942.25;4961061;28;20135;-72
2023/08/03 08:40:51;;;;;;;1.92;0.70;;;28.60;36.20;;;26.08;47.80;94931.34;4963167;28;20049;-73
2023/08/03 08:43:20;;;;;;;3.35;0.70;;;29.10;36.20;;;26.22;45.73;94913.91;4946593;28;20121;-71
2023/08/03 08:45:46;;;;;;;3.03;0.70;;;29.10;35.50;;;26.35;45.88;94916.81;4949375;28;20092;-67
2023/08/03 08:48:11;;;;;;;1.58;0.57;;;28.70;35.60;;;26.34;46.31;94948.38;4968387;28;20043;-68
2023/08/03 08:50:38;;;;;;;2.50;0.77;;;28.90;36.00;;;26.41;46.22;94918.22;4953677;28;20561;-65
2023/08/03 08:53:04;;;;;;;2.67;0.70;;;29.20;35.90;;;26.51;45.60;94928.72;4949731;28;20045;-71
2023/08/03 08:55:30;;;;;;;2.63;0.68;;;29.10;35.50;;;26.61;45.72;94925.69;4948129;28;20039;-69
2023/08/03 08:57:57;;;;;;;4.45;0.82;;;29.30;35.20;;;26.71;44.83;94903.78;4968825;28;20401;-71
2023/08/03 09:00:24;;;;;;;3.53;0.73;;;29.10;35.20;;;26.70;44.98;94929.16;4923963;28;20035;-69
2023/08/03 09:03:00;;;;;;;6.25;1.00;;;28.70;35.80;;;26.61;43.20;94901.41;4965271;28;20284;-69
2023/08/03 09:05:26;;;;;;;2.60;0.70;;;28.60;36.50;;;26.61;44.57;94920.28;4941247;28;20430;-67
2023/08/03 09:08:05;;;;;;;6.75;0.95;;;28.80;35.90;;;26.67;42.51;94891.25;4966497;28;20042;-71
2023/08/03 09:10:32;;;;;;;2.50;0.90;;;29.10;36.10;;;26.78;44.92;94920.28;4966169;28;20027;-69
2023/08/03 09:12:58;;;;;;;3.15;0.75;;;29.20;36.20;;;26.92;44.09;94908.47;4949272;28;20053;-68
2023/08/03 09:15:40;;;;;;;4.22;0.80;;;29.70;35.40;;;27.05;42.06;94899.44;4963999;28;20034;-68
2023/08/03 09:18:06;;;;;;;1.35;0.50;;;29.60;35.80;;;27.20;44.12;94917.81;4973589;28;20105;-67
2023/08/03 09:20:32;;;;;;;3.78;1.00;;;29.90;34.90;;;27.35;43.52;94911.06;4978198;28;20065;-68
2023/08/03 09:22:59;;;;;;;2.17;0.75;;;30.00;34.60;;;27.40;43.00;94903.59;4951002;28;20051;-68
2023/08/03 09:25:25;;;;;;;1.45;0.60;;;29.70;34.70;;;27.38;42.37;94919.31;4949634;28;20031;-69
2023/08/03 09:27:53;;;;;;;2.05;0.65;;;29.50;34.50;;;27.39;41.73;94907.44;4946860;28;20046;-70
2023/08/03 09:30:19;;;;;;;3.08;0.52;;;29.60;33.90;;;27.48;41.95;94903.88;4948703;28;20050;-64
2023/08/03 09:32:45;;;;;;;3.13;0.82;;;29.80;35.10;;;27.53;41.46;94890.19;4945242;28;20104;-66
2023/08/03 09:35:24;;;;;;;2.58;0.75;;;29.70;34.00;;;27.67;39.49;94888.09;4976398;28;20034;-70
2023/08/03 09:37:52;;;;;;;5.15;0.82;;;30.20;34.20;;;27.85;41.63;94908.50;4935760;28;20154;-68
2023/08/03 09:40:19;;;;;;;2.20;0.73;;;30.40;34.50;;;28.05;41.18;94913.09;4967113;28;20046;-66
2023/08/03 09:42:47;;;;;;;2.67;0.70;;;30.70;34.30;;;28.25;40.71;94902.66;4945896;28;20041;-67
2023/08/03 09:45:12;;;;;;;4.47;0.77;;;31.00;33.10;;;28.52;41.26;94915.66;4954872;28;20038;-70
2023/08/03 09:47:39;;;;;;;7.20;0.82;;;31.60;33.90;;;28.60;40.39;94898.56;4967895;28;20031;-70
2023/08/03 09:50:08;;;;;;;3.10;0.80;;;31.00;32.20;;;28.50;36.95;94858.38;4950403;28;20458;-70
2023/08/03 09:52:46;;;;;;;1.80;0.63;;;30.80;31.50;;;28.39;37.10;94861.84;4941029;28;20046;-68
2023/08/03 09:55:19;;;;;;;3.10;0.75;;;30.60;32.10;;;28.26;38.84;94880.69;4947541;28;21153;-68
2023/08/03 09:58:00;;;;;;;1.88;0.70;;;30.20;32.40;;;28.38;37.14;94871.84;4968766;28;20494;-67
2023/08/03 10:00:25;;;;;;;2.58;0.50;;;30.80;31.50;;;28.48;38.25;94887.66;4958171;28;20129;-68
2023/08/03 10:02:52;;;;;;;2.28;0.57;;;31.30;31.60;;;28.58;38.28;94892.69;4951458;28;20047;-68
2023/08/03 10:05:19;;;;;;;2.90;0.50;;;31.30;31.40;;;28.64;38.41;94907.59;4964184;28;20088;-67
2023/08/03 10:07:56;;;;;;;5.53;0.75;;;31.80;32.20;;;28.64;36.33;94864.28;4968628;28;20042;-69
2023/08/03 10:10:25;;;;;;;2.38;0.52;;;31.30;30.60;;;28.91;37.75;94902.72;4979356;28;20039;-74
2023/08/03 10:12:56;;;;;;;3.63;0.50;;;32.50;29.40;;;29.32;36.04;94863.88;4948308;28;20055;-71